sensor_id;sensor_type;location;lat;lon;timestamp;pressure;altitude;pressure_sealevel;temperature;humidity
2785;BME280;57944;48.722;9.316;2023-03-23T00:02:11;97532.28;;;12.32;70.54
2785;BME280;57944;48.722;9.316;2023-03-23T00:04:44;97519.63;;;12.37;78.03
2785;BME280;57944;48.722;9.316;2023-03-23T00:07:16;97516.94;;;12.32;76.42
2785;BME280;57944;48.722;9.316;2023-03-23T00:09:48;97511.13;;;12.24;74.97
2785;BME280;57944;48.722;9.316;2023-03-23T00:12:20;97516.44;;;12.23;74.06
2785;BME280;57944;48.722;9.316;2023-03-23T00:15:02;97516.72;;;12.33;76.32
2785;BME280;57944;48.722;9.316;2023-03-23T00:17:32;97513.66;;;12.06;86.68
2785;BME280;57944;48.722;9.316;2023-03-23T00:20:06;97515.19;;;11.95;88.78
2785;BME280;57944;48.722;9.316;2023-03-23T00:22:38;97512.47;;;11.90;87.92
2785;BME280;57944;48.722;9.316;2023-03-23T00:25:09;97519.63;;;12.00;88.46
2785;BME280;57944;48.722;9.316;2023-03-23T00:27:39;97513.53;;;12.01;87.71
2785;BME280;57944;48.722;9.316;2023-03-23T00:30:14;97512.97;;;11.99;88.06
2785;BME280;57944;48.722;9.316;2023-03-23T00:32:44;97513.41;;;11.96;86.45
2785;BME280;57944;48.722;9.316;2023-03-23T00:35:17;97511.13;;;11.88;84.67
2785;BME280;57944;48.722;9.316;2023-03-23T00:37:47;97503.66;;;11.86;85.42
2785;BME280;57944;48.722;9.316;2023-03-23T00:40:19;97494.25;;;11.80;85.17
2785;BME280;57944;48.722;9.316;2023-03-23T00:42:49;97502.25;;;11.65;87.34
2785;BME280;57944;48.722;9.316;2023-03-23T00:45:18;97493.97;;;11.70;88.18
2785;BME280;57944;48.722;9.316;2023-03-23T00:47:48;97489.06;;;11.68;87.52
2785;BME280;57944;48.722;9.316;2023-03-23T00:50:21;97484.56;;;11.70;86.63
2785;BME280;57944;48.722;9.316;2023-03-23T00:53:04;97483.19;;;11.68;86.38
2785;BME280;57944;48.722;9.316;2023-03-23T00:55:34;97482.81;;;11.64;86.84
2785;BME280;57944;48.722;9.316;2023-03-23T00:58:05;97485.53;;;11.69;86.76
2785;BME280;57944;48.722;9.316;2023-03-23T01:00:36;97481.41;;;11.68;86.97
2785;BME280;57944;48.722;9.316;2023-03-23T01:03:08;97468.22;;;11.71;87.16
2785;BME280;57944;48.722;9.316;2023-03-23T01:05:47;97466.41;;;11.78;87.57
2785;BME280;57944;48.722;9.316;2023-03-23T01:08:19;97468.81;;;11.73;87.81
2785;BME280;57944;48.722;9.316;2023-03-23T01:10:50;97474.19;;;11.65;89.44
2785;BME280;57944;48.722;9.316;2023-03-23T01:13:20;97465.75;;;11.65;91.30
2785;BME280;57944;48.722;9.316;2023-03-23T01:15:50;97472.84;;;11.62;89.84
2785;BME280;57944;48.722;9.316;2023-03-23T01:18:20;97474.63;;;11.80;91.68
2785;BME280;57944;48.722;9.316;2023-03-23T01:21:06;97471.97;;;11.69;90.31
2785;BME280;57944;48.722;9.316;2023-03-23T01:23:39;97466.53;;;11.65;90.12
2785;BME280;57944;48.722;9.316;2023-03-23T01:26:11;97471.06;;;11.63;89.33
2785;BME280;57944;48.722;9.316;2023-03-23T01:28:42;97466.94;;;11.62;89.83
2785;BME280;57944;48.722;9.316;2023-03-23T01:31:13;97459.84;;;11.64;86.84
2785;BME280;57944;48.722;9.316;2023-03-23T01:33:44;97456.19;;;11.78;86.19
2785;BME280;57944;48.722;9.316;2023-03-23T01:36:21;97453.91;;;11.70;84.33
2785;BME280;57944;48.722;9.316;2023-03-23T01:38:54;97444.31;;;11.91;92.65
2785;BME280;57944;48.722;9.316;2023-03-23T01:41:25;97436.41;;;11.92;82.43
2785;BME280;57944;48.722;9.316;2023-03-23T01:43:58;97426.53;;;12.14;82.61
2785;BME280;57944;48.722;9.316;2023-03-23T01:46:33;97424.28;;;12.06;83.30
2785;BME280;57944;48.722;9.316;2023-03-23T01:49:07;97424.13;;;12.19;82.01
2785;BME280;57944;48.722;9.316;2023-03-23T01:51:44;97425.06;;;12.06;81.17
2785;BME280;57944;48.722;9.316;2023-03-23T01:54:17;97423.13;;;11.83;83.09
2785;BME280;57944;48.722;9.316;2023-03-23T01:56:52;97419.59;;;11.84;83.06
2785;BME280;57944;48.722;9.316;2023-03-23T01:59:24;97422.88;;;11.92;84.54
2785;BME280;57944;48.722;9.316;2023-03-23T02:02:22;97421.91;;;11.93;84.74
2785;BME280;57944;48.722;9.316;2023-03-23T02:05:02;97409.25;;;11.98;84.21
2785;BME280;57944;48.722;9.316;2023-03-23T02:07:37;97414.66;;;11.90;82.87
2785;BME280;57944;48.722;9.316;2023-03-23T02:10:08;97415.13;;;11.80;84.42
2785;BME280;57944;48.722;9.316;2023-03-23T02:12:39;97420.50;;;11.72;86.94
2785;BME280;57944;48.722;9.316;2023-03-23T02:15:10;97410.81;;;11.62;87.22
2785;BME280;57944;48.722;9.316;2023-03-23T02:17:47;97409.94;;;11.68;87.37
2785;BME280;57944;48.722;9.316;2023-03-23T02:20:39;97411.94;;;11.66;87.39
2785;BME280;57944;48.722;9.316;2023-03-23T02:23:23;97413.28;;;11.69;87.36
2785;BME280;57944;48.722;9.316;2023-03-23T02:26:05;97415.47;;;11.65;88.18
2785;BME280;57944;48.722;9.316;2023-03-23T02:29:03;97422.09;;;11.48;86.44
2785;BME280;57944;48.722;9.316;2023-03-23T02:31:45;97409.94;;;11.50;86.62
2785;BME280;57944;48.722;9.316;2023-03-23T02:34:22;97412.13;;;11.46;85.69
2785;BME280;57944;48.722;9.316;2023-03-23T02:36:58;97418.28;;;11.38;86.05
2785;BME280;57944;48.722;9.316;2023-03-23T02:39:32;97406.25;;;11.46;85.73
2785;BME280;57944;48.722;9.316;2023-03-23T02:42:05;97407.75;;;11.72;90.75
2785;BME280;57944;48.722;9.316;2023-03-23T02:44:43;97405.19;;;11.72;84.96
2785;BME280;57944;48.722;9.316;2023-03-23T02:47:17;97390.00;;;11.58;85.25
2785;BME280;57944;48.722;9.316;2023-03-23T02:49:53;97383.72;;;11.61;84.67
2785;BME280;57944;48.722;9.316;2023-03-23T02:52:28;97380.59;;;11.59;85.05
2785;BME280;57944;48.722;9.316;2023-03-23T02:55:00;97371.81;;;11.55;86.80
2785;BME280;57944;48.722;9.316;2023-03-23T02:57:31;97374.78;;;11.52;88.07
2785;BME280;57944;48.722;9.316;2023-03-23T03:00:13;97376.09;;;11.36;88.91
2785;BME280;57944;48.722;9.316;2023-03-23T03:02:46;97379.59;;;11.41;89.92
2785;BME280;57944;48.722;9.316;2023-03-23T03:05:29;97376.31;;;11.53;90.37
2785;BME280;57944;48.722;9.316;2023-03-23T03:08:13;97377.59;;;11.44;89.97
2785;BME280;57944;48.722;9.316;2023-03-23T03:10:52;97378.19;;;11.46;92.43
2785;BME280;57944;48.722;9.316;2023-03-23T03:13:33;97376.31;;;11.53;90.34
2785;BME280;57944;48.722;9.316;2023-03-23T03:16:14;97371.22;;;11.53;87.86
2785;BME280;57944;48.722;9.316;2023-03-23T03:18:50;97363.28;;;11.61;87.36
2785;BME280;57944;48.722;9.316;2023-03-23T03:21:27;97359.34;;;11.65;85.96
2785;BME280;57944;48.722;9.316;2023-03-23T03:24:01;97356.50;;;11.73;85.37
2785;BME280;57944;48.722;9.316;2023-03-23T03:26:35;97348.25;;;11.71;80.75
2785;BME280;57944;48.722;9.316;2023-03-23T03:29:21;97354.78;;;11.67;82.00
2785;BME280;57944;48.722;9.316;2023-03-23T03:31:55;97349.34;;;11.45;84.07
2785;BME280;57944;48.722;9.316;2023-03-23T03:34:26;97350.81;;;11.53;83.97
2785;BME280;57944;48.722;9.316;2023-03-23T03:37:02;97358.63;;;11.58;84.94
2785;BME280;57944;48.722;9.316;2023-03-23T03:39:35;97346.91;;;11.50;87.47
2785;BME280;57944;48.722;9.316;2023-03-23T03:42:05;97350.38;;;11.56;90.41
2785;BME280;57944;48.722;9.316;2023-03-23T03:44:35;97353.72;;;11.38;89.74
2785;BME280;57944;48.722;9.316;2023-03-23T03:47:05;97351.75;;;11.40;88.32
2785;BME280;57944;48.722;9.316;2023-03-23T03:49:35;97347.19;;;11.42;87.80
2785;BME280;57944;48.722;9.316;2023-03-23T03:52:07;97349.69;;;11.49;88.10
2785;BME280;57944;48.722;9.316;2023-03-23T03:54:41;97349.34;;;11.45;88.42
2785;BME280;57944;48.722;9.316;2023-03-23T03:57:11;97353.09;;;11.43;87.65
2785;BME280;57944;48.722;9.316;2023-03-23T04:00:02;97349.97;;;11.40;87.97
2785;BME280;57944;48.722;9.316;2023-03-23T04:02:42;97350.53;;;11.43;87.30
2785;BME280;57944;48.722;9.316;2023-03-23T04:05:17;97343.66;;;11.43;85.66
2785;BME280;57944;48.722;9.316;2023-03-23T04:07:51;97348.50;;;11.51;86.19
2785;BME280;57944;48.722;9.316;2023-03-23T04:10:35;97346.50;;;11.53;87.73
2785;BME280;57944;48.722;9.316;2023-03-23T04:13:07;97344.59;;;11.49;86.29
2785;BME280;57944;48.722;9.316;2023-03-23T04:15:57;97333.94;;;11.52;85.72
2785;BME280;57944;48.722;9.316;2023-03-23T04:18:37;97332.13;;;11.59;87.59
2785;BME280;57944;48.722;9.316;2023-03-23T04:21:19;97337.34;;;11.64;85.62
2785;BME280;57944;48.722;9.316;2023-03-23T04:23:54;97333.44;;;11.61;86.48
2785;BME280;57944;48.722;9.316;2023-03-23T04:26:27;97338.53;;;11.61;86.22
2785;BME280;57944;48.722;9.316;2023-03-23T04:29:06;97342.16;;;11.72;86.57
2785;BME280;57944;48.722;9.316;2023-03-23T04:31:54;97345.72;;;11.71;85.81
2785;BME280;57944;48.722;9.316;2023-03-23T04:34:32;97348.47;;;11.70;86.89
2785;BME280;57944;48.722;9.316;2023-03-23T04:37:02;97344.50;;;11.74;86.56
2785;BME280;57944;48.722;9.316;2023-03-23T04:39:35;97349.69;;;11.85;88.90
2785;BME280;57944;48.722;9.316;2023-03-23T04:42:07;97348.47;;;12.06;88.44
2785;BME280;57944;48.722;9.316;2023-03-23T04:44:54;97357.69;;;11.89;84.18
2785;BME280;57944;48.722;9.316;2023-03-23T04:47:32;97351.81;;;11.70;85.07
2785;BME280;57944;48.722;9.316;2023-03-23T04:50:17;97360.88;;;11.66;86.63
2785;BME280;57944;48.722;9.316;2023-03-23T04:52:47;97355.41;;;11.81;86.13
2785;BME280;57944;48.722;9.316;2023-03-23T04:55:21;97347.72;;;11.88;85.42
2785;BME280;57944;48.722;9.316;2023-03-23T04:57:55;97341.41;;;11.90;85.41
2785;BME280;57944;48.722;9.316;2023-03-23T05:00:35;97340.97;;;11.93;84.95
2785;BME280;57944;48.722;9.316;2023-03-23T05:03:06;97338.09;;;12.01;88.02
2785;BME280;57944;48.722;9.316;2023-03-23T05:05:36;97339.44;;;12.04;86.30
2785;BME280;57944;48.722;9.316;2023-03-23T05:08:07;97346.69;;;12.07;85.16
2785;BME280;57944;48.722;9.316;2023-03-23T05:10:49;97344.69;;;12.09;85.04
2785;BME280;57944;48.722;9.316;2023-03-23T05:13:21;97344.78;;;12.14;85.17
2785;BME280;57944;48.722;9.316;2023-03-23T05:15:54;97345.53;;;12.03;85.34
2785;BME280;57944;48.722;9.316;2023-03-23T05:18:24;97351.69;;;12.14;86.45
2785;BME280;57944;48.722;9.316;2023-03-23T05:20:54;97344.47;;;12.11;85.32
2785;BME280;57944;48.722;9.316;2023-03-23T05:23:24;97349.19;;;11.95;90.58
2785;BME280;57944;48.722;9.316;2023-03-23T05:26:07;97351.25;;;11.87;92.25
2785;BME280;57944;48.722;9.316;2023-03-23T05:28:37;97347.19;;;11.97;93.67
2785;BME280;57944;48.722;9.316;2023-03-23T05:31:16;97345.28;;;11.93;92.52
2785;BME280;57944;48.722;9.316;2023-03-23T05:33:46;97336.19;;;11.97;92.84
2785;BME280;57944;48.722;9.316;2023-03-23T05:36:26;97331.09;;;11.97;91.58
2785;BME280;57944;48.722;9.316;2023-03-23T05:39:08;97332.16;;;11.71;92.08
2785;BME280;57944;48.722;9.316;2023-03-23T05:41:57;97336.56;;;11.63;90.26
2785;BME280;57944;48.722;9.316;2023-03-23T05:44:39;97340.88;;;11.81;89.15
2785;BME280;57944;48.722;9.316;2023-03-23T05:47:10;97345.16;;;11.88;90.67
2785;BME280;57944;48.722;9.316;2023-03-23T05:49:46;97338.59;;;11.92;90.64
2785;BME280;57944;48.722;9.316;2023-03-23T05:52:18;97342.84;;;11.98;90.32
2785;BME280;57944;48.722;9.316;2023-03-23T05:54:51;97343.88;;;12.08;89.89
2785;BME280;57944;48.722;9.316;2023-03-23T05:57:26;97349.69;;;12.16;89.86
2785;BME280;57944;48.722;9.316;2023-03-23T06:00:03;97353.84;;;12.28;89.68
2785;BME280;57944;48.722;9.316;2023-03-23T06:02:42;97353.00;;;12.35;88.43
2785;BME280;57944;48.722;9.316;2023-03-23T06:05:18;97361.31;;;12.42;89.77
2785;BME280;57944;48.722;9.316;2023-03-23T06:07:53;97364.03;;;12.59;87.97
2785;BME280;57944;48.722;9.316;2023-03-23T06:10:24;97361.41;;;12.77;85.88
2785;BME280;57944;48.722;9.316;2023-03-23T06:13:01;97374.09;;;12.95;83.49
2785;BME280;57944;48.722;9.316;2023-03-23T06:15:44;97373.41;;;13.00;86.12
2785;BME280;57944;48.722;9.316;2023-03-23T06:18:39;97391.22;;;13.18;82.68
2785;BME280;57944;48.722;9.316;2023-03-23T06:21:25;97380.56;;;13.33;81.24
2785;BME280;57944;48.722;9.316;2023-03-23T06:24:00;97389.78;;;13.46;80.59
2785;BME280;57944;48.722;9.316;2023-03-23T06:26:32;97384.22;;;13.49;80.77
2785;BME280;57944;48.722;9.316;2023-03-23T06:29:09;97387.44;;;13.56;79.97
2785;BME280;57944;48.722;9.316;2023-03-23T06:31:46;97392.22;;;13.64;79.32
2785;BME280;57944;48.722;9.316;2023-03-23T06:34:18;97403.91;;;13.60;80.05
2785;BME280;57944;48.722;9.316;2023-03-23T06:37:06;97398.78;;;13.60;81.86
2785;BME280;57944;48.722;9.316;2023-03-23T06:39:44;97397.66;;;13.68;81.05
2785;BME280;57944;48.722;9.316;2023-03-23T06:42:22;97388.66;;;13.66;79.55
2785;BME280;57944;48.722;9.316;2023-03-23T06:45:18;97404.91;;;13.59;80.30
2785;BME280;57944;48.722;9.316;2023-03-23T06:47:53;97409.47;;;13.57;81.03
2785;BME280;57944;48.722;9.316;2023-03-23T06:50:23;97405.81;;;13.53;82.17
2785;BME280;57944;48.722;9.316;2023-03-23T06:52:53;97404.38;;;13.46;82.79
2785;BME280;57944;48.722;9.316;2023-03-23T06:55:25;97405.03;;;13.53;85.75
2785;BME280;57944;48.722;9.316;2023-03-23T06:57:55;97408.47;;;13.58;87.19
2785;BME280;57944;48.722;9.316;2023-03-23T07:00:29;97415.56;;;13.80;86.22
2785;BME280;57944;48.722;9.316;2023-03-23T07:03:00;97404.44;;;14.15;84.67
2785;BME280;57944;48.722;9.316;2023-03-23T07:05:32;97410.72;;;14.64;82.17
2785;BME280;57944;48.722;9.316;2023-03-23T07:08:04;97423.03;;;15.13;79.98
2785;BME280;57944;48.722;9.316;2023-03-23T07:10:56;97410.72;;;15.54;74.55
2785;BME280;57944;48.722;9.316;2023-03-23T07:13:27;97403.53;;;15.95;71.98
2785;BME280;57944;48.722;9.316;2023-03-23T07:16:04;97409.50;;;16.22;71.18
2785;BME280;57944;48.722;9.316;2023-03-23T07:18:35;97417.78;;;16.29;71.21
2785;BME280;57944;48.722;9.316;2023-03-23T07:21:06;97423.69;;;16.03;71.02
2785;BME280;57944;48.722;9.316;2023-03-23T07:23:38;97423.56;;;15.93;70.52
2785;BME280;57944;48.722;9.316;2023-03-23T07:26:11;97426.31;;;15.86;69.48
2785;BME280;57944;48.722;9.316;2023-03-23T07:28:48;97427.44;;;15.73;69.75
2785;BME280;57944;48.722;9.316;2023-03-23T07:31:36;97434.16;;;15.57;71.55
2785;BME280;57944;48.722;9.316;2023-03-23T07:34:06;97439.91;;;15.48;71.12
2785;BME280;57944;48.722;9.316;2023-03-23T07:36:56;97450.53;;;15.34;73.20
2785;BME280;57944;48.722;9.316;2023-03-23T07:39:28;97448.69;;;15.30;75.45
2785;BME280;57944;48.722;9.316;2023-03-23T07:42:00;97462.91;;;15.20;73.46
2785;BME280;57944;48.722;9.316;2023-03-23T07:44:48;97454.88;;;15.17;74.44
2785;BME280;57944;48.722;9.316;2023-03-23T07:47:21;97458.94;;;15.13;73.13
2785;BME280;57944;48.722;9.316;2023-03-23T07:50:00;97465.44;;;15.37;69.45
2785;BME280;57944;48.722;9.316;2023-03-23T07:52:36;97459.03;;;15.57;65.91
2785;BME280;57944;48.722;9.316;2023-03-23T07:55:08;97457.63;;;15.83;62.14
2785;BME280;57944;48.722;9.316;2023-03-23T07:57:53;97459.34;;;16.21;60.83
2785;BME280;57944;48.722;9.316;2023-03-23T08:00:24;97458.13;;;16.51;56.11
2785;BME280;57944;48.722;9.316;2023-03-23T08:02:59;97470.06;;;16.62;54.88
2785;BME280;57944;48.722;9.316;2023-03-23T08:06:08;97472.47;;;17.01;56.74
2785;BME280;57944;48.722;9.316;2023-03-23T08:08:59;97474.69;;;17.19;53.33
2785;BME280;57944;48.722;9.316;2023-03-23T08:11:52;97464.44;;;17.25;52.54
2785;BME280;57944;48.722;9.316;2023-03-23T08:14:55;97465.59;;;17.44;52.40
2785;BME280;57944;48.722;9.316;2023-03-23T08:17:26;97467.88;;;17.40;52.28
2785;BME280;57944;48.722;9.316;2023-03-23T08:20:22;97478.97;;;17.46;51.10
2785;BME280;57944;48.722;9.316;2023-03-23T08:23:04;97481.63;;;17.56;51.55
2785;BME280;57944;48.722;9.316;2023-03-23T08:25:52;97483.00;;;17.32;51.50
2785;BME280;57944;48.722;9.316;2023-03-23T08:28:43;97484.13;;;17.46;51.26
2785;BME280;57944;48.722;9.316;2023-03-23T08:31:45;97488.44;;;17.78;51.00
2785;BME280;57944;48.722;9.316;2023-03-23T08:34:30;97481.38;;;18.05;49.88
2785;BME280;57944;48.722;9.316;2023-03-23T08:37:23;97482.06;;;17.85;50.28
2785;BME280;57944;48.722;9.316;2023-03-23T08:40:13;97490.72;;;18.17;49.60
2785;BME280;57944;48.722;9.316;2023-03-23T08:42:50;97491.75;;;18.21;49.47
2785;BME280;57944;48.722;9.316;2023-03-23T08:45:45;97489.75;;;18.43;49.66
2785;BME280;57944;48.722;9.316;2023-03-23T08:48:36;97497.97;;;18.30;49.41
2785;BME280;57944;48.722;9.316;2023-03-23T08:51:25;97498.94;;;18.08;50.36
2785;BME280;57944;48.722;9.316;2023-03-23T08:54:11;97506.06;;;17.86;50.70
2785;BME280;57944;48.722;9.316;2023-03-23T08:57:00;97516.91;;;17.93;51.63
2785;BME280;57944;48.722;9.316;2023-03-23T08:59:49;97515.47;;;17.33;52.40
2785;BME280;57944;48.722;9.316;2023-03-23T09:02:42;97514.44;;;17.02;54.34
2785;BME280;57944;48.722;9.316;2023-03-23T09:05:21;97522.97;;;17.07;54.23
2785;BME280;57944;48.722;9.316;2023-03-23T09:08:15;97515.31;;;17.12;54.87
2785;BME280;57944;48.722;9.316;2023-03-23T09:10:48;97521.56;;;16.89;55.46
2785;BME280;57944;48.722;9.316;2023-03-23T09:13:21;97515.94;;;17.25;55.11
2785;BME280;57944;48.722;9.316;2023-03-23T09:15:51;97524.53;;;17.78;53.82
2785;BME280;57944;48.722;9.316;2023-03-23T09:18:21;97525.13;;;17.90;53.36
2785;BME280;57944;48.722;9.316;2023-03-23T09:20:52;97534.47;;;18.01;53.08
2785;BME280;57944;48.722;9.316;2023-03-23T09:23:23;97534.91;;;17.83;53.36
2785;BME280;57944;48.722;9.316;2023-03-23T09:25:56;97540.13;;;17.56;54.96
2785;BME280;57944;48.722;9.316;2023-03-23T09:28:27;97548.50;;;18.21;53.29
2785;BME280;57944;48.722;9.316;2023-03-23T09:30:58;97546.06;;;18.57;52.12
2785;BME280;57944;48.722;9.316;2023-03-23T09:33:28;97554.81;;;18.50;52.39
2785;BME280;57944;48.722;9.316;2023-03-23T09:36:12;97542.28;;;18.22;52.78
2785;BME280;57944;48.722;9.316;2023-03-23T09:38:43;97543.50;;;18.67;51.38
2785;BME280;57944;48.722;9.316;2023-03-23T09:41:33;97545.47;;;18.34;51.91
2785;BME280;57944;48.722;9.316;2023-03-23T09:44:12;97543.31;;;18.16;53.52
2785;BME280;57944;48.722;9.316;2023-03-23T09:46:54;97553.72;;;18.41;53.91
2785;BME280;57944;48.722;9.316;2023-03-23T09:49:32;97556.16;;;18.11;53.09
2785;BME280;57944;48.722;9.316;2023-03-23T09:52:11;97565.31;;;18.28;53.59
2785;BME280;57944;48.722;9.316;2023-03-23T09:54:43;97556.88;;;17.96;54.85
2785;BME280;57944;48.722;9.316;2023-03-23T09:57:23;97559.72;;;17.99;54.53
2785;BME280;57944;48.722;9.316;2023-03-23T09:59:59;97554.66;;;17.72;54.79
2785;BME280;57944;48.722;9.316;2023-03-23T10:02:41;97563.31;;;17.56;54.86
2785;BME280;57944;48.722;9.316;2023-03-23T10:05:24;97555.22;;;17.42;55.93
2785;BME280;57944;48.722;9.316;2023-03-23T10:07:56;97560.59;;;17.73;55.22
2785;BME280;57944;48.722;9.316;2023-03-23T10:10:35;97557.75;;;17.74;54.60
2785;BME280;57944;48.722;9.316;2023-03-23T10:13:16;97578.13;;;17.76;54.92
2785;BME280;57944;48.722;9.316;2023-03-23T10:15:49;97571.00;;;17.51;55.65
2785;BME280;57944;48.722;9.316;2023-03-23T10:18:24;97561.84;;;17.70;56.17
2785;BME280;57944;48.722;9.316;2023-03-23T10:20:58;97572.34;;;18.48;54.04
2785;BME280;57944;48.722;9.316;2023-03-23T10:23:47;97564.78;;;19.20;51.85
2785;BME280;57944;48.722;9.316;2023-03-23T10:26:28;97575.59;;;18.91;52.06
2785;BME280;57944;48.722;9.316;2023-03-23T10:29:11;97574.06;;;18.95;51.82
2785;BME280;57944;48.722;9.316;2023-03-23T10:31:44;97567.88;;;19.27;50.72
2785;BME280;57944;48.722;9.316;2023-03-23T10:34:18;97566.34;;;19.36;50.98
2785;BME280;57944;48.722;9.316;2023-03-23T10:37:02;97570.66;;;18.85;51.74
2785;BME280;57944;48.722;9.316;2023-03-23T10:39:41;97578.84;;;18.66;52.71
2785;BME280;57944;48.722;9.316;2023-03-23T10:42:22;97571.56;;;18.48;52.48
2785;BME280;57944;48.722;9.316;2023-03-23T10:44:55;97568.47;;;18.46;52.43
2785;BME280;57944;48.722;9.316;2023-03-23T10:47:26;97571.31;;;18.44;52.31
2785;BME280;57944;48.722;9.316;2023-03-23T10:49:58;97580.09;;;18.48;52.97
2785;BME280;57944;48.722;9.316;2023-03-23T10:52:32;97581.69;;;18.65;52.51
2785;BME280;57944;48.722;9.316;2023-03-23T10:55:07;97570.69;;;18.27;53.66
2785;BME280;57944;48.722;9.316;2023-03-23T10:57:40;97578.38;;;18.74;52.42
2785;BME280;57944;48.722;9.316;2023-03-23T11:00:21;97579.25;;;19.16;51.72
2785;BME280;57944;48.722;9.316;2023-03-23T11:02:58;97577.19;;;19.28;50.84
2785;BME280;57944;48.722;9.316;2023-03-23T11:05:35;97576.41;;;19.48;50.18
2785;BME280;57944;48.722;9.316;2023-03-23T11:08:12;97564.78;;;19.66;48.80
2785;BME280;57944;48.722;9.316;2023-03-23T11:10:50;97571.78;;;19.40;49.78
2785;BME280;57944;48.722;9.316;2023-03-23T11:13:22;97570.44;;;19.99;49.07
2785;BME280;57944;48.722;9.316;2023-03-23T11:15:55;97565.50;;;19.97;47.97
2785;BME280;57944;48.722;9.316;2023-03-23T11:18:34;97574.53;;;20.10;48.62
2785;BME280;57944;48.722;9.316;2023-03-23T11:21:05;97573.03;;;19.63;49.28
2785;BME280;57944;48.722;9.316;2023-03-23T11:23:38;97562.19;;;19.61;49.37
2785;BME280;57944;48.722;9.316;2023-03-23T11:26:13;97562.47;;;19.34;49.69
2785;BME280;57944;48.722;9.316;2023-03-23T11:28:46;97565.81;;;19.09;50.48
2785;BME280;57944;48.722;9.316;2023-03-23T11:31:21;97566.31;;;19.77;49.92
2785;BME280;57944;48.722;9.316;2023-03-23T11:33:54;97565.84;;;19.70;49.95
2785;BME280;57944;48.722;9.316;2023-03-23T11:36:35;97565.81;;;19.80;50.69
2785;BME280;57944;48.722;9.316;2023-03-23T11:39:19;97558.56;;;19.82;49.50
2785;BME280;57944;48.722;9.316;2023-03-23T11:41:50;97557.31;;;19.70;49.90
2785;BME280;57944;48.722;9.316;2023-03-23T11:44:40;97554.84;;;20.14;49.79
2785;BME280;57944;48.722;9.316;2023-03-23T11:47:22;97549.28;;;19.56;50.91
2785;BME280;57944;48.722;9.316;2023-03-23T11:49:59;97554.66;;;18.88;52.88
2785;BME280;57944;48.722;9.316;2023-03-23T11:52:36;97544.09;;;18.89;52.26
2785;BME280;57944;48.722;9.316;2023-03-23T11:55:11;97542.31;;;19.31;50.88
2785;BME280;57944;48.722;9.316;2023-03-23T11:57:44;97541.53;;;19.30;50.42
2785;BME280;57944;48.722;9.316;2023-03-23T12:00:16;97534.00;;;19.80;49.16
2785;BME280;57944;48.722;9.316;2023-03-23T12:05:55;97545.97;;;20.36;48.63
2785;BME280;57944;48.722;9.316;2023-03-23T12:08:40;97539.72;;;20.47;47.40
2785;BME280;57944;48.722;9.316;2023-03-23T12:11:21;97533.75;;;19.86;48.68
2785;BME280;57944;48.722;9.316;2023-03-23T12:14:08;97529.06;;;19.94;48.86
2785;BME280;57944;48.722;9.316;2023-03-23T12:16:50;97539.94;;;19.80;48.96
2785;BME280;57944;48.722;9.316;2023-03-23T12:19:28;97535.81;;;19.84;48.26
2785;BME280;57944;48.722;9.316;2023-03-23T12:22:15;97533.47;;;19.93;48.77
2785;BME280;57944;48.722;9.316;2023-03-23T12:24:57;97524.19;;;19.61;48.61
2785;BME280;57944;48.722;9.316;2023-03-23T12:27:35;97530.16;;;19.26;50.08
2785;BME280;57944;48.722;9.316;2023-03-23T12:30:19;97525.75;;;19.68;48.89
2785;BME280;57944;48.722;9.316;2023-03-23T12:33:09;97523.97;;;19.42;49.00
2785;BME280;57944;48.722;9.316;2023-03-23T12:35:50;97521.34;;;19.58;48.13
2785;BME280;57944;48.722;9.316;2023-03-23T12:38:44;97529.66;;;19.34;48.44
2785;BME280;57944;48.722;9.316;2023-03-23T12:41:20;97522.41;;;19.31;48.71
2785;BME280;57944;48.722;9.316;2023-03-23T12:43:58;97521.81;;;19.96;47.87
2785;BME280;57944;48.722;9.316;2023-03-23T12:49:22;97522.38;;;19.77;46.62
2785;BME280;57944;48.722;9.316;2023-03-23T12:51:59;97513.38;;;19.39;47.49
2785;BME280;57944;48.722;9.316;2023-03-23T12:54:37;97517.16;;;19.93;47.10
2785;BME280;57944;48.722;9.316;2023-03-23T12:57:16;97514.03;;;20.66;45.63
2785;BME280;57944;48.722;9.316;2023-03-23T12:59:50;97514.53;;;21.07;44.73
2785;BME280;57944;48.722;9.316;2023-03-23T13:02:24;97508.69;;;21.26;43.81
2785;BME280;57944;48.722;9.316;2023-03-23T13:04:59;97508.53;;;21.70;43.08
2785;BME280;57944;48.722;9.316;2023-03-23T13:07:34;97497.53;;;21.78;43.36
2785;BME280;57944;48.722;9.316;2023-03-23T13:10:16;97500.88;;;20.47;44.84
2785;BME280;57944;48.722;9.316;2023-03-23T13:12:50;97498.19;;;21.07;44.64
2785;BME280;57944;48.722;9.316;2023-03-23T13:15:32;97488.53;;;21.17;43.64
2785;BME280;57944;48.722;9.316;2023-03-23T13:18:18;97497.69;;;21.34;42.95
2785;BME280;57944;48.722;9.316;2023-03-23T13:20:58;97491.31;;;20.92;44.23
2785;BME280;57944;48.722;9.316;2023-03-23T13:23:31;97482.59;;;20.78;44.00
2785;BME280;57944;48.722;9.316;2023-03-23T13:26:07;97489.38;;;21.08;44.07
2785;BME280;57944;48.722;9.316;2023-03-23T13:28:56;97482.47;;;20.59;44.37
2785;BME280;57944;48.722;9.316;2023-03-23T13:31:30;97483.84;;;20.41;45.05
2785;BME280;57944;48.722;9.316;2023-03-23T13:34:03;97476.25;;;20.05;45.54
2785;BME280;57944;48.722;9.316;2023-03-23T13:36:37;97465.00;;;19.75;46.74
2785;BME280;57944;48.722;9.316;2023-03-23T13:39:18;97460.25;;;19.98;46.05
2785;BME280;57944;48.722;9.316;2023-03-23T13:42:04;97463.53;;;20.08;46.36
2785;BME280;57944;48.722;9.316;2023-03-23T13:44:43;97457.47;;;19.84;47.05
2785;BME280;57944;48.722;9.316;2023-03-23T13:47:26;97463.41;;;19.79;47.06
2785;BME280;57944;48.722;9.316;2023-03-23T13:49:59;97457.78;;;19.47;46.96
2785;BME280;57944;48.722;9.316;2023-03-23T13:52:37;97449.28;;;19.36;47.74
2785;BME280;57944;48.722;9.316;2023-03-23T13:55:18;97448.97;;;19.53;47.41
2785;BME280;57944;48.722;9.316;2023-03-23T13:57:53;97444.44;;;20.04;46.19
2785;BME280;57944;48.722;9.316;2023-03-23T14:00:33;97444.13;;;20.16;46.30
2785;BME280;57944;48.722;9.316;2023-03-23T14:03:13;97449.25;;;20.26;46.04
2785;BME280;57944;48.722;9.316;2023-03-23T14:05:45;97437.94;;;20.12;45.95
2785;BME280;57944;48.722;9.316;2023-03-23T14:08:22;97443.25;;;19.76;46.90
2785;BME280;57944;48.722;9.316;2023-03-23T14:10:55;97435.25;;;19.73;45.94